createdAt,value
2023-05-08T00:01:50.082Z,397.15
2023-05-08T00:04:38.376Z,396.77
2023-05-08T00:07:26.357Z,407.08
2023-05-08T00:10:14.824Z,383.27
2023-05-08T00:13:02.995Z,390.48
2023-05-08T00:15:52.731Z,385.45
2023-05-08T00:18:41.077Z,404.55
2023-05-08T00:21:29.255Z,407.65
2023-05-08T00:24:17.158Z,373.67
2023-05-08T00:27:05.058Z,392.73
2023-05-08T00:29:52.977Z,388.63
2023-05-08T00:32:42.506Z,396.38
2023-05-08T00:35:30.469Z,373.52
2023-05-08T00:38:18.918Z,409.67
2023-05-08T00:41:06.998Z,390.60
2023-05-08T00:43:55.447Z,385.17
2023-05-08T00:46:44.077Z,379.40
2023-05-08T00:49:35.880Z,396.15
2023-05-08T00:52:23.905Z,417.20
2023-05-08T00:55:12.360Z,388.17
2023-05-08T00:58:00.729Z,400.33
2023-05-08T01:00:51.476Z,382.02
2023-05-08T01:03:39.939Z,395.05
2023-05-08T01:06:29.911Z,397.60
2023-05-08T01:09:17.848Z,390.30
2023-05-08T01:12:16.409Z,401.90
2023-05-08T01:15:13.309Z,398.40
2023-05-08T01:18:13.068Z,385.00
2023-05-08T01:21:04.971Z,383.98
2023-05-08T01:24:34.548Z,391.42
2023-05-08T01:27:45.969Z,393.75
2023-05-08T01:30:59.845Z,399.02
2023-05-08T01:33:55.914Z,383.50
2023-05-08T01:36:51.608Z,376.52
2023-05-08T01:39:45.402Z,415.10
2023-05-08T01:42:45.870Z,397.02
2023-05-08T01:45:39.769Z,398.65
2023-05-08T01:48:33.847Z,416.98
2023-05-08T01:51:26.438Z,415.95
2023-05-08T01:54:21.087Z,412.98
2023-05-08T01:57:11.717Z,386.17
2023-05-08T02:00:01.916Z,397.17
2023-05-08T02:02:51.665Z,388.30
2023-05-08T02:05:41.529Z,400.85
2023-05-08T02:08:32.876Z,404.60
2023-05-08T02:11:22.944Z,404.73
2023-05-08T02:14:14.180Z,419.80
2023-05-08T02:17:04.059Z,425.40
2023-05-08T02:19:53.442Z,408.00
2023-05-08T02:22:44.442Z,425.15
2023-05-08T02:25:34.324Z,393.90
2023-05-08T02:28:24.250Z,416.77
2023-05-08T02:31:13.474Z,409.83
2023-05-08T02:34:02.537Z,409.00
2023-05-08T02:36:53.363Z,381.80
2023-05-08T02:39:43.544Z,399.80
2023-05-08T02:42:33.499Z,402.63
2023-05-08T02:45:23.408Z,422.50
2023-05-08T02:48:20.554Z,408.65
2023-05-08T02:51:19.375Z,413.75
2023-05-08T02:54:11.741Z,399.05
2023-05-08T02:57:05.130Z,374.70
2023-05-08T03:00:00.497Z,419.98
2023-05-08T03:02:54.138Z,387.80
2023-05-08T03:05:48.382Z,388.27
2023-05-08T03:08:38.011Z,385.45
2023-05-08T03:11:32.554Z,410.15
2023-05-08T03:14:23.954Z,381.98
2023-05-08T03:17:18.632Z,385.20
2023-05-08T03:20:11.710Z,389.70
2023-05-08T03:23:01.631Z,409.10
2023-05-08T03:25:49.611Z,390.17
2023-05-08T03:28:39.398Z,411.70
2023-05-08T03:31:28.591Z,415.98
2023-05-08T03:34:19.935Z,400.48
2023-05-08T03:37:08.395Z,398.10
2023-05-08T03:39:56.866Z,409.15
2023-05-08T03:42:46.040Z,386.33
2023-05-08T03:45:36.917Z,389.25
2023-05-08T03:48:26.974Z,398.75
2023-05-08T03:51:17.011Z,402.38
2023-05-08T03:54:05.332Z,397.42
2023-05-08T03:56:54.739Z,403.75
2023-05-08T03:59:50.975Z,379.48
2023-05-08T04:02:45.260Z,390.20
2023-05-08T04:05:37.997Z,382.42
2023-05-08T04:08:36.021Z,390.73
2023-05-08T04:11:30.958Z,389.85
2023-05-08T04:14:23.331Z,373.92
2023-05-08T04:17:15.380Z,378.30
2023-05-08T04:20:05.893Z,370.65
2023-05-08T04:22:55.812Z,385.90
2023-05-08T04:25:49.476Z,383.30
2023-05-08T04:28:37.980Z,382.52
2023-05-08T04:31:29.259Z,400.45
2023-05-08T04:34:19.263Z,381.63
2023-05-08T04:37:07.841Z,382.98
2023-05-08T04:39:56.633Z,370.15
2023-05-08T04:42:47.636Z,391.48
2023-05-08T04:45:37.884Z,378.65
2023-05-08T04:48:26.493Z,386.50
2023-05-08T04:51:14.651Z,387.77
2023-05-08T04:54:03.442Z,372.30
2023-05-08T04:56:52.036Z,383.23
2023-05-08T04:59:41.683Z,400.35
2023-05-08T05:02:30.408Z,375.85
2023-05-08T05:05:18.914Z,374.08
2023-05-08T05:08:07.146Z,372.35
2023-05-08T05:10:55.129Z,390.88
2023-05-08T05:13:43.588Z,389.92
2023-05-08T05:16:33.434Z,385.95
2023-05-08T05:19:21.645Z,402.25
2023-05-08T05:22:09.691Z,397.25
2023-05-08T05:24:58.275Z,395.48
2023-05-08T05:27:47.137Z,392.92
2023-05-08T05:30:35.543Z,399.35
2023-05-08T05:33:24.903Z,384.08
2023-05-08T05:36:13.660Z,380.73
2023-05-08T05:39:02.279Z,376.55
2023-05-08T05:41:50.956Z,376.63
2023-05-08T05:44:39.707Z,372.55
2023-05-08T05:47:27.720Z,370.70
2023-05-08T05:50:18.478Z,389.92
2023-05-08T05:53:07.588Z,362.63
2023-05-08T05:55:55.852Z,374.95
2023-05-08T05:58:45.360Z,384.52
2023-05-08T06:01:33.978Z,395.33
2023-05-08T06:04:22.043Z,399.08
2023-05-08T06:07:11.601Z,391.08
2023-05-08T06:09:59.673Z,382.58
2023-05-08T06:12:47.837Z,397.02
2023-05-08T06:15:36.791Z,416.13
2023-05-08T06:18:25.177Z,370.10
2023-05-08T06:21:13.131Z,380.85
2023-05-08T06:24:02.650Z,376.50
2023-05-08T06:26:50.605Z,413.52
2023-05-08T06:29:38.871Z,383.25
2023-05-08T06:32:26.867Z,378.85
2023-05-08T06:35:15.679Z,390.25
2023-05-08T06:38:03.618Z,386.30
2023-05-08T06:40:54.077Z,398.80
2023-05-08T06:43:41.977Z,398.48
2023-05-08T06:46:30.130Z,401.30
2023-05-08T06:49:18.153Z,403.05
2023-05-08T06:52:06.559Z,392.45
2023-05-08T06:54:54.505Z,385.90
2023-05-08T06:57:43.921Z,402.58
2023-05-08T07:00:32.344Z,378.88
2023-05-08T07:03:20.834Z,391.10
2023-05-08T07:06:09.884Z,380.25
2023-05-08T07:08:57.891Z,383.02
2023-05-08T07:11:45.800Z,387.65
2023-05-08T07:14:35.635Z,379.05
2023-05-08T07:17:23.553Z,377.45
2023-05-08T07:20:12.060Z,397.55
2023-05-08T07:22:59.981Z,384.70
2023-05-08T07:25:48.034Z,398.08
2023-05-08T07:28:35.973Z,373.50
2023-05-08T07:31:25.443Z,382.63
2023-05-08T07:34:13.664Z,366.35
2023-05-08T07:37:01.805Z,382.08
2023-05-08T07:39:49.706Z,371.75
2023-05-08T07:42:42.353Z,389.85
2023-05-08T07:45:30.432Z,380.30
2023-05-08T07:48:20.088Z,383.92
2023-05-08T07:51:08.005Z,393.55
2023-05-08T07:53:56.329Z,384.10
2023-05-08T07:56:44.269Z,396.73
2023-05-08T07:59:32.343Z,407.30
2023-05-08T08:02:26.409Z,380.35
2023-05-08T08:05:16.157Z,379.13
2023-05-08T08:08:04.735Z,392.73
2023-05-08T08:10:52.745Z,385.98
2023-05-08T08:13:41.887Z,381.58
2023-05-08T08:16:29.781Z,399.60
2023-05-08T08:19:18.020Z,383.92
2023-05-08T08:22:07.699Z,394.50
2023-05-08T08:24:56.199Z,395.33
2023-05-08T08:27:44.149Z,376.02
2023-05-08T08:30:32.410Z,390.40
2023-05-08T08:33:20.410Z,382.80
2023-05-08T08:36:14.556Z,376.98
2023-05-08T08:39:04.271Z,378.17
2023-05-08T08:41:52.172Z,401.52
2023-05-08T08:44:40.208Z,389.33
2023-05-08T08:47:30.254Z,392.52
2023-05-08T08:50:22.335Z,405.48
2023-05-08T08:53:12.472Z,384.67
2023-05-08T08:56:02.986Z,388.23
2023-05-08T08:58:55.913Z,394.65
2023-05-08T09:01:46.869Z,395.40
2023-05-08T09:04:34.784Z,370.38
2023-05-08T09:07:24.381Z,371.45
2023-05-08T09:10:15.321Z,375.67
2023-05-08T09:13:05.046Z,395.45
2023-05-08T09:15:53.700Z,415.60
2023-05-08T09:18:41.652Z,386.73
2023-05-08T09:21:29.931Z,392.30
2023-05-08T09:24:17.788Z,394.60
2023-05-08T09:27:22.411Z,396.63
2023-05-08T09:30:14.253Z,376.15
2023-05-08T09:33:02.961Z,410.23
2023-05-08T09:35:52.090Z,413.23
2023-05-08T09:38:43.568Z,407.35
2023-05-08T09:41:31.944Z,388.08
2023-05-08T09:44:19.837Z,409.52
2023-05-08T09:47:13.266Z,390.05
2023-05-08T09:50:02.824Z,387.70
2023-05-08T09:52:51.432Z,418.77
2023-05-08T09:55:49.016Z,419.02
2023-05-08T09:58:40.785Z,439.63
2023-05-08T10:01:30.517Z,418.42
2023-05-08T10:04:31.898Z,415.17
2023-05-08T10:07:28.835Z,397.90
2023-05-08T10:10:25.222Z,412.75
2023-05-08T10:13:13.531Z,404.45
2023-05-08T10:16:01.976Z,403.55
2023-05-08T10:18:51.770Z,402.67
2023-05-08T10:21:45.095Z,436.05
2023-05-08T10:24:34.679Z,434.90
2023-05-08T10:27:30.440Z,408.75
2023-05-08T10:30:18.748Z,421.45
2023-05-08T10:33:10.612Z,436.63
2023-05-08T10:35:59.498Z,411.63
2023-05-08T10:38:49.861Z,425.77
2023-05-08T10:41:39.377Z,406.90
2023-05-08T10:44:29.603Z,433.98
2023-05-08T10:47:26.229Z,439.90
2023-05-08T10:50:27.872Z,410.20
2023-05-08T10:53:21.546Z,408.15
2023-05-08T10:56:11.736Z,432.75
2023-05-08T10:59:00.872Z,421.60
2023-05-08T11:01:50.036Z,422.50
2023-05-08T11:04:38.361Z,412.52
2023-05-08T11:07:52.132Z,439.08
2023-05-08T11:10:40.808Z,413.92
2023-05-08T11:13:35.001Z,424.90
2023-05-08T11:17:01.201Z,443.75
2023-05-08T11:19:57.365Z,413.85
2023-05-08T11:22:48.883Z,419.67
2023-05-08T11:25:44.034Z,418.65
2023-05-08T11:28:34.690Z,428.67
2023-05-08T11:31:22.835Z,423.58
2023-05-08T11:34:49.338Z,422.95
2023-05-08T11:37:38.180Z,420.58
2023-05-08T11:40:48.726Z,420.58
2023-05-08T11:44:21.549Z,417.77
2023-05-08T11:47:19.406Z,396.50
2023-05-08T11:50:09.820Z,434.40
2023-05-08T11:52:57.763Z,421.50
2023-05-08T11:55:49.182Z,444.05
2023-05-08T11:58:37.399Z,458.50
2023-05-08T12:01:25.309Z,401.65
2023-05-08T12:04:14.654Z,428.00
2023-05-08T12:07:02.880Z,430.17
2023-05-08T12:09:51.698Z,435.80
2023-05-08T12:12:40.601Z,418.45
2023-05-08T12:15:28.916Z,423.50
2023-05-08T12:18:17.933Z,435.35
2023-05-08T12:21:07.326Z,430.85
2023-05-08T12:23:55.954Z,437.90
2023-05-08T12:26:43.887Z,430.38
2023-05-08T12:30:21.980Z,409.08
2023-05-08T12:33:36.065Z,423.83
2023-05-08T12:36:25.286Z,386.55
2023-05-08T12:39:14.115Z,413.42
2023-05-08T12:42:02.462Z,399.65
2023-05-08T12:44:53.976Z,439.95
2023-05-08T12:47:41.954Z,408.02
2023-05-08T12:50:32.780Z,413.42
2023-05-08T12:53:23.375Z,399.75
2023-05-08T12:56:11.576Z,437.10
2023-05-08T12:59:00.232Z,434.70
2023-05-08T13:01:51.885Z,417.08
2023-05-08T13:04:39.941Z,433.95
2023-05-08T13:07:32.977Z,430.42
2023-05-08T13:10:24.419Z,418.38
2023-05-08T13:13:13.940Z,433.60
2023-05-08T13:16:04.192Z,423.40
2023-05-08T13:18:52.505Z,436.75
2023-05-08T13:21:40.407Z,412.00
2023-05-08T13:24:28.478Z,413.15
2023-05-08T13:27:17.965Z,453.00
2023-05-08T13:30:07.188Z,431.58
2023-05-08T13:32:55.519Z,435.60
2023-05-08T13:35:43.474Z,424.58
2023-05-08T13:38:31.858Z,444.63
2023-05-08T13:41:19.744Z,427.20
2023-05-08T13:44:09.382Z,446.13
2023-05-08T13:46:57.343Z,436.58
2023-05-08T13:49:46.946Z,428.35
2023-05-08T13:52:35.029Z,418.15
2023-05-08T13:55:23.602Z,435.45
2023-05-08T13:58:12.150Z,424.38
2023-05-08T14:01:10.308Z,434.15
2023-05-08T14:04:06.934Z,419.95
2023-05-08T14:06:54.983Z,450.17
2023-05-08T14:09:43.263Z,448.38
2023-05-08T14:12:35.701Z,412.55
2023-05-08T14:15:27.012Z,390.08
2023-05-08T14:18:21.251Z,433.23
2023-05-08T14:21:09.133Z,445.80
2023-05-08T14:23:57.285Z,409.27
2023-05-08T14:26:45.246Z,395.58
2023-05-08T14:29:33.493Z,408.55
2023-05-08T14:32:21.472Z,405.85
2023-05-08T14:35:11.540Z,410.85
2023-05-08T14:37:59.479Z,411.92
2023-05-08T14:40:51.050Z,394.48
2023-05-08T14:43:38.963Z,407.67
2023-05-08T14:46:27.333Z,381.35
2023-05-08T14:49:22.232Z,387.50
2023-05-08T14:52:18.494Z,400.77
2023-05-08T14:55:07.972Z,398.17
2023-05-08T14:57:56.309Z,399.15
2023-05-08T15:00:44.485Z,423.08
2023-05-08T15:03:32.485Z,412.38
2023-05-08T15:06:22.236Z,409.13
2023-05-08T15:09:11.581Z,403.17
2023-05-08T15:12:00.107Z,393.73
2023-05-08T15:14:48.409Z,414.80
2023-05-08T15:17:36.530Z,414.95
2023-05-08T15:20:24.742Z,436.58
2023-05-08T15:23:12.643Z,407.42
2023-05-08T15:26:04.295Z,421.73
2023-05-08T15:28:52.288Z,423.25
2023-05-08T15:31:40.487Z,435.30
2023-05-08T15:34:32.499Z,395.85
2023-05-08T15:37:21.075Z,422.95
2023-05-08T15:40:10.228Z,454.33
2023-05-08T15:42:59.610Z,434.55
2023-05-08T15:45:47.821Z,450.88
2023-05-08T15:48:35.793Z,438.58
2023-05-08T15:51:24.134Z,429.52
2023-05-08T15:54:12.001Z,423.50
2023-05-08T15:57:00.177Z,433.13
2023-05-08T15:59:49.451Z,417.90
2023-05-08T16:02:37.663Z,451.15
2023-05-08T16:05:25.592Z,456.08
2023-05-08T16:08:14.208Z,433.88
2023-05-08T16:11:02.154Z,423.48
2023-05-08T16:13:50.367Z,450.40
2023-05-08T16:16:41.149Z,443.10
2023-05-08T16:19:29.711Z,436.35
2023-05-08T16:22:17.605Z,425.40
2023-05-08T16:25:06.286Z,453.02
2023-05-08T16:27:54.220Z,460.48
2023-05-08T16:30:42.564Z,433.77
2023-05-08T16:33:33.006Z,432.70
2023-05-08T16:36:21.186Z,405.77
2023-05-08T16:39:09.265Z,430.67
2023-05-08T16:41:57.555Z,433.05
2023-05-08T16:44:45.513Z,442.30
2023-05-08T16:47:34.298Z,440.00
2023-05-08T16:50:23.605Z,428.50
2023-05-08T16:53:11.562Z,427.70
2023-05-08T16:55:59.474Z,425.95
2023-05-08T16:58:47.838Z,452.17
2023-05-08T17:01:35.780Z,476.35
2023-05-08T17:04:23.869Z,443.38
2023-05-08T17:07:13.146Z,424.55
2023-05-08T17:10:01.345Z,435.25
2023-05-08T17:12:50.518Z,447.80
2023-05-08T17:15:39.974Z,448.27
2023-05-08T17:18:27.848Z,416.77
2023-05-08T17:21:16.278Z,433.50
2023-05-08T17:24:06.344Z,463.23
2023-05-08T17:26:54.385Z,454.05
2023-05-08T17:29:42.277Z,460.17
2023-05-08T17:32:30.435Z,439.92
2023-05-08T17:35:18.431Z,442.83
2023-05-08T17:38:06.554Z,437.42
2023-05-08T17:40:56.285Z,450.35
2023-05-08T17:43:44.586Z,440.35
2023-05-08T17:46:32.480Z,433.63
2023-05-08T17:49:20.509Z,458.35
2023-05-08T17:52:08.439Z,448.88
2023-05-08T17:54:56.694Z,456.58
2023-05-08T17:57:45.957Z,440.15
2023-05-08T18:00:34.157Z,445.65
2023-05-08T18:03:22.237Z,444.58
2023-05-08T18:06:10.227Z,460.42
2023-05-08T18:08:58.178Z,497.33
2023-05-08T18:11:46.442Z,468.27
2023-05-08T18:14:35.760Z,485.52
2023-05-08T18:17:24.099Z,455.50
2023-05-08T18:20:12.840Z,465.67
2023-05-08T18:23:01.321Z,480.00
2023-05-08T18:25:49.228Z,463.02
2023-05-08T18:28:37.637Z,474.35
2023-05-08T18:31:26.947Z,439.00
2023-05-08T18:34:15.306Z,486.88
2023-05-08T18:37:03.246Z,482.95
2023-05-08T18:39:51.717Z,469.70
2023-05-08T18:42:39.614Z,455.48
2023-05-08T18:45:28.214Z,457.80
2023-05-08T18:48:17.466Z,454.17
2023-05-08T18:51:06.435Z,455.65
2023-05-08T18:53:57.042Z,457.30
2023-05-08T18:56:45.199Z,457.65
2023-05-08T18:59:33.098Z,425.70
2023-05-08T19:02:21.298Z,425.88
2023-05-08T19:05:10.856Z,451.05
2023-05-08T19:07:59.172Z,424.40
2023-05-08T19:10:47.105Z,438.08
2023-05-08T19:13:35.205Z,432.55
2023-05-08T19:16:23.183Z,435.00
2023-05-08T19:19:11.376Z,411.05
2023-05-08T19:22:00.675Z,425.73
2023-05-08T19:24:48.983Z,413.90
2023-05-08T19:27:36.966Z,415.33
2023-05-08T19:30:25.040Z,393.02
2023-05-08T19:33:12.979Z,410.33
2023-05-08T19:36:01.073Z,432.77
2023-05-08T19:38:50.290Z,423.83
2023-05-08T19:41:38.570Z,398.95
2023-05-08T19:44:27.936Z,413.13
2023-05-08T19:47:16.393Z,403.85
2023-05-08T19:50:04.678Z,418.08
2023-05-08T19:52:52.992Z,426.90
2023-05-08T19:55:42.245Z,404.50
2023-05-08T19:58:30.200Z,415.20
2023-05-08T20:01:18.165Z,393.98
2023-05-08T20:04:06.719Z,407.90
2023-05-08T20:06:54.681Z,424.48
2023-05-08T20:09:42.908Z,407.40
2023-05-08T20:12:32.130Z,420.00
2023-05-08T20:15:20.821Z,421.60
2023-05-08T20:18:09.307Z,402.90
2023-05-08T20:20:57.562Z,392.17
2023-05-08T20:23:45.494Z,419.13
2023-05-08T20:26:34.519Z,425.85
2023-05-08T20:29:24.412Z,412.33
2023-05-08T20:32:15.054Z,398.02
2023-05-08T20:35:03.138Z,413.35
2023-05-08T20:37:51.049Z,409.88
2023-05-08T20:40:39.326Z,424.40
2023-05-08T20:43:27.217Z,401.08
2023-05-08T20:46:16.893Z,385.65
2023-05-08T20:49:05.946Z,409.98
2023-05-08T20:51:53.851Z,400.10
2023-05-08T20:54:44.289Z,401.67
2023-05-08T20:57:32.519Z,395.20
2023-05-08T21:00:21.138Z,403.48
2023-05-08T21:03:10.861Z,405.17
2023-05-08T21:05:58.776Z,414.27
2023-05-08T21:08:47.056Z,413.73
2023-05-08T21:11:35.037Z,404.63
2023-05-08T21:14:23.376Z,418.75
2023-05-08T21:17:11.260Z,419.45
2023-05-08T21:20:00.560Z,388.65
2023-05-08T21:22:48.457Z,412.15
2023-05-08T21:25:36.600Z,417.58
2023-05-08T21:28:25.047Z,395.73
2023-05-08T21:31:13.010Z,400.45
2023-05-08T21:34:01.243Z,413.27
2023-05-08T21:36:50.513Z,420.65
2023-05-08T21:39:38.747Z,416.52
2023-05-08T21:42:26.698Z,411.95
2023-05-08T21:45:15.464Z,407.60
2023-05-08T21:48:03.776Z,412.30
2023-05-08T21:50:52.171Z,400.35
2023-05-08T21:53:41.586Z,419.80
2023-05-08T21:56:29.478Z,395.83
2023-05-08T21:59:18.389Z,409.90
2023-05-08T22:02:06.405Z,416.10
2023-05-08T22:04:54.688Z,424.52
2023-05-08T22:07:42.671Z,443.35
2023-05-08T22:10:32.217Z,414.00
2023-05-08T22:13:20.222Z,413.50
2023-05-08T22:16:09.402Z,391.02
2023-05-08T22:18:57.390Z,404.63
2023-05-08T22:21:45.693Z,406.55
2023-05-08T22:24:33.772Z,406.27
2023-05-08T22:27:23.008Z,394.90
2023-05-08T22:30:11.562Z,414.48
2023-05-08T22:33:00.100Z,401.60
2023-05-08T22:35:48.063Z,421.83
2023-05-08T22:38:35.938Z,404.05
2023-05-08T22:41:24.168Z,388.15
2023-05-08T22:44:13.623Z,406.23
2023-05-08T22:47:02.282Z,411.55
2023-05-08T22:49:50.491Z,421.83
2023-05-08T22:52:39.479Z,398.27
2023-05-08T22:55:27.575Z,395.90
2023-05-08T22:58:15.616Z,413.52
2023-05-08T23:01:05.286Z,410.33
2023-05-08T23:03:53.730Z,401.92
2023-05-08T23:06:41.894Z,382.83
2023-05-08T23:09:30.692Z,418.52
2023-05-08T23:12:18.983Z,403.10
2023-05-08T23:15:08.312Z,418.80
2023-05-08T23:17:58.045Z,383.88
2023-05-08T23:20:46.422Z,390.27
2023-05-08T23:23:34.470Z,410.95
2023-05-08T23:26:22.680Z,399.63
2023-05-08T23:29:10.563Z,427.02
2023-05-08T23:31:58.740Z,408.10
2023-05-08T23:34:48.062Z,429.10
2023-05-08T23:37:36.171Z,391.50
2023-05-08T23:40:24.359Z,384.55
2023-05-08T23:43:12.514Z,417.33
2023-05-08T23:46:00.739Z,392.75
2023-05-08T23:48:48.689Z,398.63
2023-05-08T23:51:38.215Z,410.10
2023-05-08T23:54:26.794Z,394.52
2023-05-08T23:57:15.406Z,386.48
